Terminal Aerodrome Forecast
Issued by NWS

Home | Current Version | Previous Version | Text Only | Print | Product List | Glossary Off
Versions: 1 2 3 4 5 6 7 8 9 10 11 12 13 14 15

651
FTUS43 KICT 150338 AAA
TAFRSL
TAF AMD
KRSL 150338Z 1504/1524 VRB04KT P6SM OVC023
      TEMPO 1504/1508 P6SM -FZRA OVC018
     FM150800 10005KT P6SM OVC015
      TEMPO 1508/1512 5SM -FZRA OVC010
     FM151200 07005KT 3SM FZRA OVC005=

USA.gov is the U.S. government's official web portal to all federal, state and local government web resources and services.